Gambrill, Iowa
Current Conditions -  °F | °C
As of 10:52 PM on Friday 28 Nov 2014 (Local Time) from KDVN Reporting Station
Clear Clear  
Wind Chill: 21°   Ceiling: Unl
Heat Index: 31°   Visibility: 8mi
Dew Point: 27°   Wind: 14mph
Humidity: 85%   Direction: 140°SE
Pressure: 29.78"   Gusts: NA
Location:  41.7317°N, 90.5411°W
Report Text: KDVN 290452Z AUTO 14012KT 8SM CLR M01/M03 A2978 RMK AO2 SLP093 T10061028 FZRANO
Loading
Personal Weather Stations






























Interactive Weather Map New forecast layout! Learn more

10-Day Weather Forecast

Advertisements
Track Severe Weather on mobile